PWSweather.com
Personal Weather Stations
Station Observations
TURNER1
South Turner, Turner, ME 04282

South TurnerTurner, ME 04282

Lat: 44.193235, Lon: -70.264886

Elevation: 500

Station Type: Davis Vantage Pro

Latest ConditionsUpdated 7:30:04 PM EDT Sunday, May 20, 2018
Currently Today's Max Today's Min Today's Average
Temperature 64.9°F18.3°C 76.5°F24.7°C 47.3°F8.5°C 59.7°F15.4°C
Dew Point 52.9°F11.6°C 64.6°F18.1°C 46.5°F8.1°C 54.5°F12.5°C
Winds Calm Calm 9.2 mph NE14.8 kmh NE - 1.9 mph 3.1 kmh
Wind Gusts -- 12.7 mph20.4 kmh - -
Humidity 65% 97% 56% 85%
Pressure 29.89 in1012.2 mb 29.98 in1015.2 mb 29.76 in1007.8 mb -
Precipitation - 0.01 in0.3 mm - -
Hour Temp Dew Point Humidity Winds Wind Gusts Pressure Precip Precip Rate Daily Precip Total
07:30 PM 64.9°F18.3°C 52.9°F11.6°C 65% Calm Calm -- 29.89 in1012.2 mb - 0.00 in0.0 mm 0.01 in0.3 mm
07:00 PM 65.8°F18.8°C 53.3°F11.8°C 64% Calm Calm -- 29.88 in1011.9 mb - 0.00 in0.0 mm 0.01 in0.3 mm
06:30 PM 66.8°F19.3°C 51.5°F10.8°C 58% 1.2 mph ENE1.9 kmh ENE 3.5 mph5.6 kmh 29.86 in1011.2 mb - 0.00 in0.0 mm 0.01 in0.3 mm
06:00 PM 67.8°F19.9°C 53.4°F11.9°C 60% 3.5 mph NNE5.6 kmh NNE 5.8 mph9.3 kmh 29.85 in1010.8 mb - 0.00 in0.0 mm 0.01 in0.3 mm
05:30 PM 69.3°F20.7°C 54.4°F12.4°C 59% 2.3 mph NE3.7 kmh NE 3.5 mph5.6 kmh 29.86 in1011.2 mb - 0.00 in0.0 mm 0.01 in0.3 mm
05:00 PM 70.3°F21.3°C 55.3°F12.9°C 59% 3.5 mph SSW5.6 kmh SSW 11.5 mph18.5 kmh 29.85 in1010.8 mb - 0.00 in0.0 mm 0.01 in0.3 mm
04:30 PM 70.3°F21.3°C 56.2°F13.4°C 61% 4.6 mph NNE7.4 kmh NNE 3.5 mph5.6 kmh 29.82 in1009.8 mb - 0.00 in0.0 mm 0.01 in0.3 mm
04:00 PM 74.2°F23.4°C 57.5°F14.2°C 56% 9.2 mph NE14.8 kmh NE 12.7 mph20.4 kmh 29.81 in1009.5 mb - 0.00 in0.0 mm 0.01 in0.3 mm
03:30 PM 76.5°F24.7°C 60.6°F15.9°C 58% Calm Calm 8.1 mph13.0 kmh 29.79 in1008.8 mb - 0.00 in0.0 mm 0.01 in0.3 mm
03:00 PM 76.3°F24.6°C 60.4°F15.8°C 58% 1.2 mph N1.9 kmh N 3.5 mph5.6 kmh 29.78 in1008.5 mb - 0.00 in0.0 mm 0.01 in0.3 mm
02:30 PM 75.6°F24.2°C 60.7°F15.9°C 60% 1.2 mph NW1.9 kmh NW -- 29.78 in1008.5 mb - 0.00 in0.0 mm 0.01 in0.3 mm
02:00 PM 74.0°F23.3°C 62.7°F17.1°C 68% Calm Calm -- 29.78 in1008.5 mb - 0.00 in0.0 mm 0.01 in0.3 mm
01:30 PM 68.2°F20.1°C 64.5°F18.1°C 88% Calm Calm -- 29.78 in1008.5 mb - 0.00 in0.0 mm 0.01 in0.3 mm
01:00 PM 65.8°F18.8°C 64.6°F18.1°C 96% Calm Calm -- 29.77 in1008.1 mb - 0.01 in0.3 mm 0.01 in0.3 mm
12:30 PM 66.1°F18.9°C 64.3°F17.9°C 94% Calm Calm -- 29.77 in1008.1 mb - 0.00 in0.0 mm 0.00 in0.0 mm
12:00 PM 65.8°F18.8°C 63.1°F17.3°C 91% Calm Calm -- 29.77 in1008.1 mb - 0.00 in0.0 mm 0.00 in0.0 mm
11:30 AM 64.5°F18.1°C 61.8°F16.6°C 91% Calm Calm -- 29.77 in1008.1 mb - 0.00 in0.0 mm 0.00 in0.0 mm
11:00 AM 64.1°F17.8°C 61.4°F16.3°C 91% Calm Calm 2.3 mph3.7 kmh 29.77 in1008.1 mb - 0.00 in0.0 mm 0.00 in0.0 mm
10:30 AM 63.5°F17.5°C 61.1°F16.2°C 92% Calm Calm -- 29.76 in1007.8 mb - 0.00 in0.0 mm 0.00 in0.0 mm
10:00 AM 62.3°F16.8°C 60.5°F15.8°C 94% Calm Calm -- 29.77 in1008.1 mb - 0.00 in0.0 mm 0.00 in0.0 mm
09:30 AM 60.9°F16.1°C 60.0°F15.6°C 97% 3.5 mph WSW5.6 kmh WSW 5.8 mph9.3 kmh 29.77 in1008.1 mb - 0.00 in0.0 mm 0.00 in0.0 mm
09:00 AM 57.9°F14.4°C 57.1°F13.9°C 97% 1.2 mph WNW1.9 kmh WNW 3.5 mph5.6 kmh 29.77 in1008.1 mb - 0.00 in0.0 mm 0.00 in0.0 mm
08:30 AM 55.6°F13.1°C 54.8°F12.7°C 97% Calm Calm -- 29.79 in1008.8 mb - 0.00 in0.0 mm 0.00 in0.0 mm
08:00 AM 54.4°F12.4°C 53.6°F12.0°C 97% Calm Calm -- 29.79 in1008.8 mb - 0.00 in0.0 mm 0.00 in0.0 mm
07:30 AM 53.3°F11.8°C 52.4°F11.3°C 97% 1.2 mph WSW1.9 kmh WSW 1.2 mph1.9 kmh 29.79 in1008.8 mb - 0.00 in0.0 mm 0.00 in0.0 mm
07:00 AM 52.9°F11.6°C 52.1°F11.2°C 97% 1.2 mph WSW1.9 kmh WSW -- 29.80 in1009.1 mb - 0.00 in0.0 mm 0.00 in0.0 mm
06:30 AM 52.3°F11.3°C 51.5°F10.8°C 97% 4.6 mph WSW7.4 kmh WSW 8.1 mph13.0 kmh 29.81 in1009.5 mb - 0.00 in0.0 mm 0.00 in0.0 mm
06:00 AM 51.1°F10.6°C 50.3°F10.2°C 97% 4.6 mph WSW7.4 kmh WSW 6.9 mph11.1 kmh 29.82 in1009.8 mb - 0.00 in0.0 mm 0.00 in0.0 mm
05:30 AM 50.2°F10.1°C 49.4°F9.7°C 97% 1.2 mph WSW1.9 kmh WSW 6.9 mph11.1 kmh 29.82 in1009.8 mb - 0.00 in0.0 mm 0.00 in0.0 mm
05:00 AM 49.5°F9.7°C 48.7°F9.3°C 97% 2.3 mph W3.7 kmh W 3.5 mph5.6 kmh 29.83 in1010.2 mb - 0.00 in0.0 mm 0.00 in0.0 mm
04:30 AM 49.1°F9.5°C 48.3°F9.1°C 97% 3.5 mph WSW5.6 kmh WSW 4.6 mph7.4 kmh 29.85 in1010.8 mb - 0.00 in0.0 mm 0.00 in0.0 mm
04:00 AM 48.8°F9.3°C 48.0°F8.9°C 97% 6.9 mph SW11.1 kmh SW 12.7 mph20.4 kmh 29.86 in1011.2 mb - 0.00 in0.0 mm 0.00 in0.0 mm
03:30 AM 48.5°F9.2°C 47.7°F8.7°C 97% 3.5 mph WSW5.6 kmh WSW 5.8 mph9.3 kmh 29.87 in1011.5 mb - 0.00 in0.0 mm 0.00 in0.0 mm
03:00 AM 47.9°F8.8°C 47.1°F8.4°C 97% 3.5 mph WSW5.6 kmh WSW 4.6 mph7.4 kmh 29.89 in1012.2 mb - 0.00 in0.0 mm 0.00 in0.0 mm
02:30 AM 47.7°F8.7°C 46.9°F8.3°C 97% 6.9 mph W11.1 kmh W 9.2 mph14.8 kmh 29.90 in1012.5 mb - 0.00 in0.0 mm 0.00 in0.0 mm
02:00 AM 47.4°F8.6°C 46.6°F8.1°C 97% 1.2 mph SW1.9 kmh SW 1.2 mph1.9 kmh 29.91 in1012.9 mb - 0.00 in0.0 mm 0.00 in0.0 mm
01:30 AM 47.3°F8.5°C 46.5°F8.1°C 97% Calm Calm 3.5 mph5.6 kmh 29.93 in1013.5 mb - 0.00 in0.0 mm 0.00 in0.0 mm
01:00 AM 47.3°F8.5°C 46.5°F8.1°C 97% 2.3 mph WSW3.7 kmh WSW 10.4 mph16.7 kmh 29.95 in1014.2 mb - 0.00 in0.0 mm 0.00 in0.0 mm
12:30 AM 47.3°F8.5°C 46.5°F8.1°C 97% 3.5 mph WSW5.6 kmh WSW 5.8 mph9.3 kmh 29.96 in1014.6 mb - 0.00 in0.0 mm 0.00 in0.0 mm
12:00 AM 47.4°F8.6°C 46.6°F8.1°C 97% Calm Calm 1.2 mph1.9 kmh 29.98 in1015.2 mb - 0.00 in0.0 mm 0.00 in0.0 mm